sensor_id;sensor_type;location;lat;lon;timestamp;temperature;humidity
52643;DHT22;38531;53.296;6.614;2023-04-29T00:01:49;9.20;99.90
52643;DHT22;38531;53.296;6.614;2023-04-29T00:04:28;8.80;99.90
52643;DHT22;38531;53.296;6.614;2023-04-29T00:07:04;8.80;99.90
52643;DHT22;38531;53.296;6.614;2023-04-29T00:09:35;8.70;99.90
52643;DHT22;38531;53.296;6.614;2023-04-29T00:12:14;8.80;99.90
52643;DHT22;38531;53.296;6.614;2023-04-29T00:14:51;8.70;99.90
52643;DHT22;38531;53.296;6.614;2023-04-29T00:17:33;8.80;99.90
52643;DHT22;38531;53.296;6.614;2023-04-29T00:19:59;8.70;99.90
52643;DHT22;38531;53.296;6.614;2023-04-29T00:22:43;8.70;99.90
52643;DHT22;38531;53.296;6.614;2023-04-29T00:25:29;8.60;99.90
52643;DHT22;38531;53.296;6.614;2023-04-29T00:27:55;8.70;99.90
52643;DHT22;38531;53.296;6.614;2023-04-29T00:33:26;8.70;99.90
52643;DHT22;38531;53.296;6.614;2023-04-29T00:35:51;8.70;99.90
52643;DHT22;38531;53.296;6.614;2023-04-29T00:38:17;8.70;99.90
52643;DHT22;38531;53.296;6.614;2023-04-29T00:40:43;8.70;99.90
52643;DHT22;38531;53.296;6.614;2023-04-29T00:43:11;8.60;99.90
52643;DHT22;38531;53.296;6.614;2023-04-29T00:45:37;8.60;99.90
52643;DHT22;38531;53.296;6.614;2023-04-29T00:48:08;8.80;99.90
52643;DHT22;38531;53.296;6.614;2023-04-29T00:50:34;8.50;99.90
52643;DHT22;38531;53.296;6.614;2023-04-29T00:53:03;8.40;99.90
52643;DHT22;38531;53.296;6.614;2023-04-29T00:55:32;8.60;99.90
52643;DHT22;38531;53.296;6.614;2023-04-29T00:58:00;8.50;99.90
52643;DHT22;38531;53.296;6.614;2023-04-29T01:00:29;8.60;99.90
52643;DHT22;38531;53.296;6.614;2023-04-29T01:02:59;8.50;99.90
52643;DHT22;38531;53.296;6.614;2023-04-29T01:05:34;8.50;99.90
52643;DHT22;38531;53.296;6.614;2023-04-29T01:08:16;8.50;99.90
52643;DHT22;38531;53.296;6.614;2023-04-29T01:14:14;8.50;99.90
52643;DHT22;38531;53.296;6.614;2023-04-29T01:16:52;8.20;99.90
52643;DHT22;38531;53.296;6.614;2023-04-29T01:19:38;8.70;99.90
52643;DHT22;38531;53.296;6.614;2023-04-29T01:22:09;8.50;99.90
52643;DHT22;38531;53.296;6.614;2023-04-29T01:24:49;8.70;99.90
52643;DHT22;38531;53.296;6.614;2023-04-29T01:30:00;8.40;99.90
52643;DHT22;38531;53.296;6.614;2023-04-29T01:35:26;8.30;99.90
52643;DHT22;38531;53.296;6.614;2023-04-29T01:40:39;8.50;99.90
52643;DHT22;38531;53.296;6.614;2023-04-29T01:43:21;8.10;99.90
52643;DHT22;38531;53.296;6.614;2023-04-29T01:46:09;8.10;99.90
52643;DHT22;38531;53.296;6.614;2023-04-29T01:48:40;8.10;99.90
52643;DHT22;38531;53.296;6.614;2023-04-29T01:51:09;7.50;99.90
52643;DHT22;38531;53.296;6.614;2023-04-29T01:53:38;8.00;99.90
52643;DHT22;38531;53.296;6.614;2023-04-29T01:56:07;8.00;99.90
52643;DHT22;38531;53.296;6.614;2023-04-29T02:01:21;8.20;99.90
52643;DHT22;38531;53.296;6.614;2023-04-29T02:03:49;7.90;99.90
52643;DHT22;38531;53.296;6.614;2023-04-29T02:06:20;8.10;99.90
52643;DHT22;38531;53.296;6.614;2023-04-29T02:08:51;7.60;99.90
52643;DHT22;38531;53.296;6.614;2023-04-29T02:11:24;7.50;99.90
52643;DHT22;38531;53.296;6.614;2023-04-29T02:13:50;7.90;99.90
52643;DHT22;38531;53.296;6.614;2023-04-29T02:16:16;7.90;99.90
52643;DHT22;38531;53.296;6.614;2023-04-29T02:18:44;7.90;99.90
52643;DHT22;38531;53.296;6.614;2023-04-29T02:21:13;7.90;99.90
52643;DHT22;38531;53.296;6.614;2023-04-29T02:23:38;8.00;99.90
52643;DHT22;38531;53.296;6.614;2023-04-29T02:26:05;7.90;99.90
52643;DHT22;38531;53.296;6.614;2023-04-29T02:28:31;7.90;99.90
52643;DHT22;38531;53.296;6.614;2023-04-29T02:31:00;8.00;99.90
52643;DHT22;38531;53.296;6.614;2023-04-29T02:33:26;8.00;99.90
52643;DHT22;38531;53.296;6.614;2023-04-29T02:36:00;8.00;99.90
52643;DHT22;38531;53.296;6.614;2023-04-29T02:38:28;8.00;99.90
52643;DHT22;38531;53.296;6.614;2023-04-29T02:40:56;8.00;99.90
52643;DHT22;38531;53.296;6.614;2023-04-29T02:43:25;8.00;99.90
52643;DHT22;38531;53.296;6.614;2023-04-29T02:45:56;8.00;99.90
52643;DHT22;38531;53.296;6.614;2023-04-29T02:48:22;7.90;99.90
52643;DHT22;38531;53.296;6.614;2023-04-29T02:50:50;8.00;99.90
52643;DHT22;38531;53.296;6.614;2023-04-29T02:53:16;8.20;99.90
52643;DHT22;38531;53.296;6.614;2023-04-29T02:55:47;8.00;99.90
52643;DHT22;38531;53.296;6.614;2023-04-29T02:58:16;8.00;99.90
52643;DHT22;38531;53.296;6.614;2023-04-29T03:00:42;8.20;99.90
52643;DHT22;38531;53.296;6.614;2023-04-29T03:03:10;8.10;99.90
52643;DHT22;38531;53.296;6.614;2023-04-29T03:05:36;8.20;99.90
52643;DHT22;38531;53.296;6.614;2023-04-29T03:08:02;8.40;99.90
52643;DHT22;38531;53.296;6.614;2023-04-29T03:10:31;8.20;99.90
52643;DHT22;38531;53.296;6.614;2023-04-29T03:12:59;8.10;99.90
52643;DHT22;38531;53.296;6.614;2023-04-29T03:15:25;8.40;99.90
52643;DHT22;38531;53.296;6.614;2023-04-29T03:17:53;8.20;99.90
52643;DHT22;38531;53.296;6.614;2023-04-29T03:20:19;8.20;99.90
52643;DHT22;38531;53.296;6.614;2023-04-29T03:22:47;8.20;99.90
52643;DHT22;38531;53.296;6.614;2023-04-29T03:25:13;7.80;99.90
52643;DHT22;38531;53.296;6.614;2023-04-29T03:27:41;8.30;99.90
52643;DHT22;38531;53.296;6.614;2023-04-29T03:30:07;8.40;99.90
52643;DHT22;38531;53.296;6.614;2023-04-29T03:32:33;8.20;99.90
52643;DHT22;38531;53.296;6.614;2023-04-29T03:35:01;8.30;99.90
52643;DHT22;38531;53.296;6.614;2023-04-29T03:37:29;8.20;99.90
52643;DHT22;38531;53.296;6.614;2023-04-29T03:39:55;8.20;99.90
52643;DHT22;38531;53.296;6.614;2023-04-29T03:42:26;9.10;99.90
52643;DHT22;38531;53.296;6.614;2023-04-29T03:44:52;8.20;99.90
52643;DHT22;38531;53.296;6.614;2023-04-29T03:47:18;8.60;99.90
52643;DHT22;38531;53.296;6.614;2023-04-29T03:49:43;8.20;99.90
52643;DHT22;38531;53.296;6.614;2023-04-29T03:52:09;8.30;99.90
52643;DHT22;38531;53.296;6.614;2023-04-29T03:54:47;8.30;99.90
52643;DHT22;38531;53.296;6.614;2023-04-29T03:57:13;8.40;99.90
52643;DHT22;38531;53.296;6.614;2023-04-29T03:59:39;8.30;99.90
52643;DHT22;38531;53.296;6.614;2023-04-29T04:02:04;8.30;99.90
52643;DHT22;38531;53.296;6.614;2023-04-29T04:04:32;8.00;99.90
52643;DHT22;38531;53.296;6.614;2023-04-29T04:06:58;8.30;99.90
52643;DHT22;38531;53.296;6.614;2023-04-29T04:09:28;8.30;99.90
52643;DHT22;38531;53.296;6.614;2023-04-29T04:12:03;8.30;99.90
52643;DHT22;38531;53.296;6.614;2023-04-29T04:14:29;8.70;99.90
52643;DHT22;38531;53.296;6.614;2023-04-29T04:16:55;8.40;99.90
52643;DHT22;38531;53.296;6.614;2023-04-29T04:19:23;8.30;99.90
52643;DHT22;38531;53.296;6.614;2023-04-29T04:21:49;8.30;99.90
52643;DHT22;38531;53.296;6.614;2023-04-29T04:24:14;8.10;99.90
52643;DHT22;38531;53.296;6.614;2023-04-29T04:26:40;8.40;99.90
52643;DHT22;38531;53.296;6.614;2023-04-29T04:29:06;8.40;99.90
52643;DHT22;38531;53.296;6.614;2023-04-29T04:31:35;8.40;99.90
52643;DHT22;38531;53.296;6.614;2023-04-29T04:34:08;8.30;99.90
52643;DHT22;38531;53.296;6.614;2023-04-29T04:36:55;8.30;99.90
52643;DHT22;38531;53.296;6.614;2023-04-29T04:39:49;8.30;99.90
52643;DHT22;38531;53.296;6.614;2023-04-29T04:46:13;8.40;99.90
52643;DHT22;38531;53.296;6.614;2023-04-29T04:48:45;8.40;99.90
52643;DHT22;38531;53.296;6.614;2023-04-29T04:51:16;8.30;99.90
52643;DHT22;38531;53.296;6.614;2023-04-29T04:53:45;8.60;99.90
52643;DHT22;38531;53.296;6.614;2023-04-29T04:56:13;8.40;99.90
52643;DHT22;38531;53.296;6.614;2023-04-29T04:58:39;8.30;99.90
52643;DHT22;38531;53.296;6.614;2023-04-29T05:01:05;8.40;99.90
52643;DHT22;38531;53.296;6.614;2023-04-29T05:03:33;8.40;99.90
52643;DHT22;38531;53.296;6.614;2023-04-29T05:05:59;8.30;99.90
52643;DHT22;38531;53.296;6.614;2023-04-29T05:08:35;8.30;99.90
52643;DHT22;38531;53.296;6.614;2023-04-29T05:11:03;8.40;99.90
52643;DHT22;38531;53.296;6.614;2023-04-29T05:13:32;8.50;99.90
52643;DHT22;38531;53.296;6.614;2023-04-29T05:16:05;8.50;99.90
52643;DHT22;38531;53.296;6.614;2023-04-29T05:18:31;8.20;99.90
52643;DHT22;38531;53.296;6.614;2023-04-29T05:23:45;8.50;99.90
52643;DHT22;38531;53.296;6.614;2023-04-29T05:26:13;8.50;99.90
52643;DHT22;38531;53.296;6.614;2023-04-29T05:28:50;8.40;99.90
52643;DHT22;38531;53.296;6.614;2023-04-29T05:31:16;8.00;99.90
52643;DHT22;38531;53.296;6.614;2023-04-29T05:33:41;8.60;99.90
52643;DHT22;38531;53.296;6.614;2023-04-29T05:36:07;8.70;99.90
52643;DHT22;38531;53.296;6.614;2023-04-29T05:38:33;8.60;99.90
52643;DHT22;38531;53.296;6.614;2023-04-29T05:40:58;8.70;99.90
52643;DHT22;38531;53.296;6.614;2023-04-29T05:43:24;8.80;99.90
52643;DHT22;38531;53.296;6.614;2023-04-29T05:45:50;8.60;99.90
52643;DHT22;38531;53.296;6.614;2023-04-29T05:48:16;8.80;99.90
52643;DHT22;38531;53.296;6.614;2023-04-29T05:50:41;8.60;99.90
52643;DHT22;38531;53.296;6.614;2023-04-29T05:53:07;9.70;99.90
52643;DHT22;38531;53.296;6.614;2023-04-29T05:55:33;8.90;99.90
52643;DHT22;38531;53.296;6.614;2023-04-29T05:57:58;8.70;99.90
52643;DHT22;38531;53.296;6.614;2023-04-29T06:00:27;8.90;99.90
52643;DHT22;38531;53.296;6.614;2023-04-29T06:02:53;9.00;99.90
52643;DHT22;38531;53.296;6.614;2023-04-29T06:07:55;8.80;99.90
52643;DHT22;38531;53.296;6.614;2023-04-29T06:10:38;9.10;99.90
52643;DHT22;38531;53.296;6.614;2023-04-29T06:13:07;9.20;99.90
52643;DHT22;38531;53.296;6.614;2023-04-29T06:15:35;9.30;99.90
52643;DHT22;38531;53.296;6.614;2023-04-29T06:18:12;9.40;99.90
52643;DHT22;38531;53.296;6.614;2023-04-29T06:20:41;9.50;99.90
52643;DHT22;38531;53.296;6.614;2023-04-29T06:23:06;9.80;99.90
52643;DHT22;38531;53.296;6.614;2023-04-29T06:25:33;9.80;99.90
52643;DHT22;38531;53.296;6.614;2023-04-29T06:28:01;9.60;99.90
52643;DHT22;38531;53.296;6.614;2023-04-29T06:30:53;10.00;99.90
52643;DHT22;38531;53.296;6.614;2023-04-29T06:33:29;10.10;99.90
52643;DHT22;38531;53.296;6.614;2023-04-29T06:42:01;10.30;99.90
52643;DHT22;38531;53.296;6.614;2023-04-29T06:44:33;10.40;99.90
52643;DHT22;38531;53.296;6.614;2023-04-29T06:47:24;10.50;99.90
52643;DHT22;38531;53.296;6.614;2023-04-29T06:50:15;10.60;99.90
52643;DHT22;38531;53.296;6.614;2023-04-29T06:53:24;10.70;99.90
52643;DHT22;38531;53.296;6.614;2023-04-29T06:55:52;11.00;99.90
52643;DHT22;38531;53.296;6.614;2023-04-29T06:58:21;10.90;99.90
52643;DHT22;38531;53.296;6.614;2023-04-29T07:00:47;11.30;99.90
52643;DHT22;38531;53.296;6.614;2023-04-29T07:03:16;10.80;99.90
52643;DHT22;38531;53.296;6.614;2023-04-29T07:05:44;10.90;99.90
52643;DHT22;38531;53.296;6.614;2023-04-29T07:08:13;11.20;99.90
52643;DHT22;38531;53.296;6.614;2023-04-29T07:10:39;11.20;99.90
52643;DHT22;38531;53.296;6.614;2023-04-29T07:13:10;11.30;99.90
52643;DHT22;38531;53.296;6.614;2023-04-29T07:15:44;11.40;99.90
52643;DHT22;38531;53.296;6.614;2023-04-29T07:18:10;11.40;99.90
52643;DHT22;38531;53.296;6.614;2023-04-29T07:20:36;11.70;99.90
52643;DHT22;38531;53.296;6.614;2023-04-29T07:23:02;11.50;99.90
52643;DHT22;38531;53.296;6.614;2023-04-29T07:32:31;11.90;99.90
52643;DHT22;38531;53.296;6.614;2023-04-29T07:34:57;11.90;99.90
52643;DHT22;38531;53.296;6.614;2023-04-29T07:37:23;12.10;99.90
52643;DHT22;38531;53.296;6.614;2023-04-29T07:39:48;12.20;99.90
52643;DHT22;38531;53.296;6.614;2023-04-29T07:42:14;12.20;99.90
52643;DHT22;38531;53.296;6.614;2023-04-29T07:44:40;12.30;99.90
52643;DHT22;38531;53.296;6.614;2023-04-29T07:47:05;12.10;99.90
52643;DHT22;38531;53.296;6.614;2023-04-29T07:49:31;12.60;99.90
52643;DHT22;38531;53.296;6.614;2023-04-29T07:51:57;12.60;99.90
52643;DHT22;38531;53.296;6.614;2023-04-29T07:54:22;12.60;99.90
52643;DHT22;38531;53.296;6.614;2023-04-29T07:56:48;12.70;99.90
52643;DHT22;38531;53.296;6.614;2023-04-29T07:59:14;12.80;99.90
52643;DHT22;38531;53.296;6.614;2023-04-29T08:01:40;13.00;99.90
52643;DHT22;38531;53.296;6.614;2023-04-29T08:04:05;13.00;99.90
52643;DHT22;38531;53.296;6.614;2023-04-29T08:06:32;13.10;99.90
52643;DHT22;38531;53.296;6.614;2023-04-29T08:08:58;13.00;99.90
52643;DHT22;38531;53.296;6.614;2023-04-29T08:11:26;13.10;99.90
52643;DHT22;38531;53.296;6.614;2023-04-29T08:13:52;13.20;99.90
52643;DHT22;38531;53.296;6.614;2023-04-29T08:16:19;13.30;99.90
52643;DHT22;38531;53.296;6.614;2023-04-29T08:18:46;13.40;99.90
52643;DHT22;38531;53.296;6.614;2023-04-29T08:21:14;13.50;99.90
52643;DHT22;38531;53.296;6.614;2023-04-29T08:23:40;13.50;99.90
52643;DHT22;38531;53.296;6.614;2023-04-29T08:26:05;13.80;99.90
52643;DHT22;38531;53.296;6.614;2023-04-29T08:28:31;13.90;99.90
52643;DHT22;38531;53.296;6.614;2023-04-29T08:30:57;13.90;99.90
52643;DHT22;38531;53.296;6.614;2023-04-29T08:33:23;14.00;99.90
52643;DHT22;38531;53.296;6.614;2023-04-29T08:35:56;13.90;99.90
52643;DHT22;38531;53.296;6.614;2023-04-29T08:38:21;14.00;99.90
52643;DHT22;38531;53.296;6.614;2023-04-29T08:40:47;14.10;99.90
52643;DHT22;38531;53.296;6.614;2023-04-29T08:43:13;14.10;99.90
52643;DHT22;38531;53.296;6.614;2023-04-29T08:45:44;14.20;99.90
52643;DHT22;38531;53.296;6.614;2023-04-29T08:48:12;14.30;99.90
52643;DHT22;38531;53.296;6.614;2023-04-29T08:50:38;14.30;99.90
52643;DHT22;38531;53.296;6.614;2023-04-29T08:53:05;14.20;99.90
52643;DHT22;38531;53.296;6.614;2023-04-29T08:55:36;14.10;99.90
52643;DHT22;38531;53.296;6.614;2023-04-29T08:58:07;14.30;99.90
52643;DHT22;38531;53.296;6.614;2023-04-29T09:00:33;14.40;99.90
52643;DHT22;38531;53.296;6.614;2023-04-29T09:02:59;14.40;99.90
52643;DHT22;38531;53.296;6.614;2023-04-29T09:05:26;14.50;99.90
52643;DHT22;38531;53.296;6.614;2023-04-29T09:07:59;14.90;99.90
52643;DHT22;38531;53.296;6.614;2023-04-29T09:10:31;14.60;99.90
52643;DHT22;38531;53.296;6.614;2023-04-29T09:12:57;14.90;99.90
52643;DHT22;38531;53.296;6.614;2023-04-29T09:15:25;14.60;99.90
52643;DHT22;38531;53.296;6.614;2023-04-29T09:17:53;14.80;99.90
52643;DHT22;38531;53.296;6.614;2023-04-29T09:22:48;14.80;99.90
52643;DHT22;38531;53.296;6.614;2023-04-29T09:25:14;14.90;99.90
52643;DHT22;38531;53.296;6.614;2023-04-29T09:31:11;15.10;99.90
52643;DHT22;38531;53.296;6.614;2023-04-29T09:33:56;15.20;99.90
52643;DHT22;38531;53.296;6.614;2023-04-29T09:36:36;15.40;99.90
52643;DHT22;38531;53.296;6.614;2023-04-29T09:39:04;15.60;99.90
52643;DHT22;38531;53.296;6.614;2023-04-29T09:44:22;15.60;99.90
52643;DHT22;38531;53.296;6.614;2023-04-29T09:46:54;15.80;99.90
52643;DHT22;38531;53.296;6.614;2023-04-29T09:51:57;15.70;99.90
52643;DHT22;38531;53.296;6.614;2023-04-29T10:10:33;15.60;99.90
52643;DHT22;38531;53.296;6.614;2023-04-29T10:37:09;16.40;96.90
52643;DHT22;38531;53.296;6.614;2023-04-29T10:39:44;16.30;93.80
52643;DHT22;38531;53.296;6.614;2023-04-29T10:50:59;16.70;94.00
52643;DHT22;38531;53.296;6.614;2023-04-29T10:58:46;16.90;92.90
52643;DHT22;38531;53.296;6.614;2023-04-29T11:01:16;16.90;92.90
52643;DHT22;38531;53.296;6.614;2023-04-29T11:59:33;17.40;95.50
52643;DHT22;38531;53.296;6.614;2023-04-29T14:38:36;15.70;99.90
52643;DHT22;38531;53.296;6.614;2023-04-29T15:07:44;15.40;99.90
52643;DHT22;38531;53.296;6.614;2023-04-29T15:10:56;15.30;99.90
52643;DHT22;38531;53.296;6.614;2023-04-29T15:30:20;15.10;99.90
52643;DHT22;38531;53.296;6.614;2023-04-29T15:37:14;14.90;99.90
52643;DHT22;38531;53.296;6.614;2023-04-29T15:39:49;14.80;99.90
52643;DHT22;38531;53.296;6.614;2023-04-29T15:42:20;14.80;99.90
52643;DHT22;38531;53.296;6.614;2023-04-29T15:44:46;14.50;99.90
52643;DHT22;38531;53.296;6.614;2023-04-29T15:50:20;14.10;99.90
52643;DHT22;38531;53.296;6.614;2023-04-29T15:53:12;14.30;99.90
52643;DHT22;38531;53.296;6.614;2023-04-29T16:05:29;15.20;99.90
52643;DHT22;38531;53.296;6.614;2023-04-29T16:07:59;13.50;99.90
52643;DHT22;38531;53.296;6.614;2023-04-29T16:10:43;13.60;99.90
52643;DHT22;38531;53.296;6.614;2023-04-29T16:17:59;13.30;99.90
52643;DHT22;38531;53.296;6.614;2023-04-29T16:21:01;13.30;99.90
52643;DHT22;38531;53.296;6.614;2023-04-29T16:24:39;13.10;99.90
52643;DHT22;38531;53.296;6.614;2023-04-29T16:41:08;12.70;99.90
52643;DHT22;38531;53.296;6.614;2023-04-29T16:43:34;12.60;99.90
52643;DHT22;38531;53.296;6.614;2023-04-29T16:46:00;12.60;99.90
52643;DHT22;38531;53.296;6.614;2023-04-29T16:58:41;12.70;99.90
52643;DHT22;38531;53.296;6.614;2023-04-29T17:01:14;12.60;99.90
52643;DHT22;38531;53.296;6.614;2023-04-29T17:03:40;12.60;99.90
52643;DHT22;38531;53.296;6.614;2023-04-29T17:06:39;12.40;99.90
52643;DHT22;38531;53.296;6.614;2023-04-29T17:12:30;12.50;99.90
52643;DHT22;38531;53.296;6.614;2023-04-29T17:15:27;12.40;99.90
52643;DHT22;38531;53.296;6.614;2023-04-29T17:18:29;12.30;99.90
52643;DHT22;38531;53.296;6.614;2023-04-29T17:25:57;12.20;99.90
52643;DHT22;38531;53.296;6.614;2023-04-29T17:28:52;12.40;99.90
52643;DHT22;38531;53.296;6.614;2023-04-29T17:31:18;12.30;99.90
52643;DHT22;38531;53.296;6.614;2023-04-29T17:33:55;12.00;99.90
52643;DHT22;38531;53.296;6.614;2023-04-29T17:36:30;11.90;99.90
52643;DHT22;38531;53.296;6.614;2023-04-29T17:39:00;12.00;99.90
52643;DHT22;38531;53.296;6.614;2023-04-29T17:41:25;11.70;99.90
52643;DHT22;38531;53.296;6.614;2023-04-29T17:43:58;11.70;99.90
52643;DHT22;38531;53.296;6.614;2023-04-29T17:46:24;11.50;99.90
52643;DHT22;38531;53.296;6.614;2023-04-29T17:48:59;11.40;99.90
52643;DHT22;38531;53.296;6.614;2023-04-29T17:51:28;11.40;99.90
52643;DHT22;38531;53.296;6.614;2023-04-29T17:53:54;11.70;99.90
52643;DHT22;38531;53.296;6.614;2023-04-29T17:56:20;11.20;99.90
52643;DHT22;38531;53.296;6.614;2023-04-29T17:58:46;11.10;99.90
52643;DHT22;38531;53.296;6.614;2023-04-29T18:01:13;11.20;99.90
52643;DHT22;38531;53.296;6.614;2023-04-29T18:03:41;11.10;99.90
52643;DHT22;38531;53.296;6.614;2023-04-29T18:06:07;11.30;99.90
52643;DHT22;38531;53.296;6.614;2023-04-29T18:08:32;10.90;99.90
52643;DHT22;38531;53.296;6.614;2023-04-29T18:10:58;10.90;99.90
52643;DHT22;38531;53.296;6.614;2023-04-29T18:13:24;10.80;99.90
52643;DHT22;38531;53.296;6.614;2023-04-29T18:15:49;11.40;99.90
52643;DHT22;38531;53.296;6.614;2023-04-29T18:18:15;10.90;99.90
52643;DHT22;38531;53.296;6.614;2023-04-29T18:20:42;10.70;99.90
52643;DHT22;38531;53.296;6.614;2023-04-29T18:23:08;10.80;99.90
52643;DHT22;38531;53.296;6.614;2023-04-29T18:25:37;10.30;99.90
52643;DHT22;38531;53.296;6.614;2023-04-29T18:28:08;10.50;99.90
52643;DHT22;38531;53.296;6.614;2023-04-29T18:30:43;10.40;99.90
52643;DHT22;38531;53.296;6.614;2023-04-29T18:33:12;10.90;99.90
52643;DHT22;38531;53.296;6.614;2023-04-29T18:35:38;10.30;99.90
52643;DHT22;38531;53.296;6.614;2023-04-29T18:38:20;10.40;99.90
52643;DHT22;38531;53.296;6.614;2023-04-29T18:40:55;10.60;99.90
52643;DHT22;38531;53.296;6.614;2023-04-29T18:43:21;10.20;99.90
52643;DHT22;38531;53.296;6.614;2023-04-29T18:45:56;10.10;99.90
52643;DHT22;38531;53.296;6.614;2023-04-29T18:48:28;10.00;99.90
52643;DHT22;38531;53.296;6.614;2023-04-29T18:51:02;10.20;99.90
52643;DHT22;38531;53.296;6.614;2023-04-29T18:53:30;9.80;99.90
52643;DHT22;38531;53.296;6.614;2023-04-29T18:55:56;10.20;99.90
52643;DHT22;38531;53.296;6.614;2023-04-29T18:58:24;9.70;99.90
52643;DHT22;38531;53.296;6.614;2023-04-29T19:00:53;9.60;99.90
52643;DHT22;38531;53.296;6.614;2023-04-29T19:03:18;9.50;99.90
52643;DHT22;38531;53.296;6.614;2023-04-29T19:05:44;9.80;99.90
52643;DHT22;38531;53.296;6.614;2023-04-29T19:08:17;9.40;99.90
52643;DHT22;38531;53.296;6.614;2023-04-29T19:10:51;9.30;99.90
52643;DHT22;38531;53.296;6.614;2023-04-29T19:17:25;9.00;99.90
52643;DHT22;38531;53.296;6.614;2023-04-29T19:19:51;9.30;99.90
52643;DHT22;38531;53.296;6.614;2023-04-29T19:22:17;8.30;99.90
52643;DHT22;38531;53.296;6.614;2023-04-29T19:24:43;9.00;99.90
52643;DHT22;38531;53.296;6.614;2023-04-29T19:27:11;9.00;99.90
52643;DHT22;38531;53.296;6.614;2023-04-29T19:29:37;8.90;99.90
52643;DHT22;38531;53.296;6.614;2023-04-29T19:32:03;8.90;99.90
52643;DHT22;38531;53.296;6.614;2023-04-29T19:34:29;9.80;99.90
52643;DHT22;38531;53.296;6.614;2023-04-29T19:36:55;8.80;99.90
52643;DHT22;38531;53.296;6.614;2023-04-29T19:39:24;9.30;99.90
52643;DHT22;38531;53.296;6.614;2023-04-29T19:41:52;8.00;99.90
52643;DHT22;38531;53.296;6.614;2023-04-29T19:44:20;9.30;99.90
52643;DHT22;38531;53.296;6.614;2023-04-29T19:46:50;8.50;99.90
52643;DHT22;38531;53.296;6.614;2023-04-29T19:49:16;9.10;99.90
52643;DHT22;38531;53.296;6.614;2023-04-29T19:51:42;8.80;99.90
52643;DHT22;38531;53.296;6.614;2023-04-29T19:54:08;8.10;99.90
52643;DHT22;38531;53.296;6.614;2023-04-29T19:56:34;9.00;99.90
52643;DHT22;38531;53.296;6.614;2023-04-29T19:59:00;8.40;99.90
52643;DHT22;38531;53.296;6.614;2023-04-29T20:01:26;8.40;99.90
52643;DHT22;38531;53.296;6.614;2023-04-29T20:03:52;8.50;99.90
52643;DHT22;38531;53.296;6.614;2023-04-29T20:06:18;9.00;99.90
52643;DHT22;38531;53.296;6.614;2023-04-29T20:08:44;8.20;99.90
52643;DHT22;38531;53.296;6.614;2023-04-29T20:11:10;8.20;99.90
52643;DHT22;38531;53.296;6.614;2023-04-29T20:13:39;8.20;99.90
52643;DHT22;38531;53.296;6.614;2023-04-29T20:16:05;8.20;99.90
52643;DHT22;38531;53.296;6.614;2023-04-29T20:18:31;8.50;99.90
52643;DHT22;38531;53.296;6.614;2023-04-29T20:21:00;8.00;99.90
52643;DHT22;38531;53.296;6.614;2023-04-29T20:23:26;7.90;99.90
52643;DHT22;38531;53.296;6.614;2023-04-29T20:25:52;7.90;99.90
52643;DHT22;38531;53.296;6.614;2023-04-29T20:28:18;8.20;99.90
52643;DHT22;38531;53.296;6.614;2023-04-29T20:30:53;8.40;99.90
52643;DHT22;38531;53.296;6.614;2023-04-29T20:33:19;7.80;99.90
52643;DHT22;38531;53.296;6.614;2023-04-29T20:36:05;7.50;99.90
52643;DHT22;38531;53.296;6.614;2023-04-29T20:38:33;7.70;99.90
52643;DHT22;38531;53.296;6.614;2023-04-29T20:41:00;7.70;99.90
52643;DHT22;38531;53.296;6.614;2023-04-29T20:43:29;7.80;99.90
52643;DHT22;38531;53.296;6.614;2023-04-29T20:45:55;7.40;99.90
52643;DHT22;38531;53.296;6.614;2023-04-29T20:48:26;7.50;99.90
52643;DHT22;38531;53.296;6.614;2023-04-29T20:50:52;7.60;99.90
52643;DHT22;38531;53.296;6.614;2023-04-29T20:53:18;7.60;99.90
52643;DHT22;38531;53.296;6.614;2023-04-29T20:55:44;8.70;99.90
52643;DHT22;38531;53.296;6.614;2023-04-29T20:58:11;7.50;99.90
52643;DHT22;38531;53.296;6.614;2023-04-29T21:00:37;7.20;99.90
52643;DHT22;38531;53.296;6.614;2023-04-29T21:03:02;7.40;99.90
52643;DHT22;38531;53.296;6.614;2023-04-29T21:05:31;7.30;99.90
52643;DHT22;38531;53.296;6.614;2023-04-29T21:07:56;7.60;99.90
52643;DHT22;38531;53.296;6.614;2023-04-29T21:10:23;8.10;99.90
52643;DHT22;38531;53.296;6.614;2023-04-29T21:12:53;8.50;99.90
52643;DHT22;38531;53.296;6.614;2023-04-29T21:15:22;7.10;99.90
52643;DHT22;38531;53.296;6.614;2023-04-29T21:17:50;7.20;99.90
52643;DHT22;38531;53.296;6.614;2023-04-29T21:20:16;7.10;99.90
52643;DHT22;38531;53.296;6.614;2023-04-29T21:22:42;7.10;99.90
52643;DHT22;38531;53.296;6.614;2023-04-29T21:25:08;7.80;99.90
52643;DHT22;38531;53.296;6.614;2023-04-29T21:27:37;7.50;99.90
52643;DHT22;38531;53.296;6.614;2023-04-29T21:37:28;6.90;99.90
52643;DHT22;38531;53.296;6.614;2023-04-29T21:40:04;6.90;99.90
52643;DHT22;38531;53.296;6.614;2023-04-29T21:42:30;6.80;99.90
52643;DHT22;38531;53.296;6.614;2023-04-29T21:44:58;7.00;99.90
52643;DHT22;38531;53.296;6.614;2023-04-29T21:47:26;6.80;99.90
52643;DHT22;38531;53.296;6.614;2023-04-29T21:50:02;6.70;99.90
52643;DHT22;38531;53.296;6.614;2023-04-29T21:52:31;6.70;99.90
52643;DHT22;38531;53.296;6.614;2023-04-29T21:55:00;6.00;99.90
52643;DHT22;38531;53.296;6.614;2023-04-29T21:57:26;7.20;99.90
52643;DHT22;38531;53.296;6.614;2023-04-29T21:59:57;8.10;99.90
52643;DHT22;38531;53.296;6.614;2023-04-29T22:02:26;7.00;99.90
52643;DHT22;38531;53.296;6.614;2023-04-29T22:04:53;6.50;99.90
52643;DHT22;38531;53.296;6.614;2023-04-29T22:07:23;7.10;99.90
52643;DHT22;38531;53.296;6.614;2023-04-29T22:09:51;6.40;99.90
52643;DHT22;38531;53.296;6.614;2023-04-29T22:12:21;7.80;99.90
52643;DHT22;38531;53.296;6.614;2023-04-29T22:14:47;6.30;99.90
52643;DHT22;38531;53.296;6.614;2023-04-29T22:17:15;7.00;99.90
52643;DHT22;38531;53.296;6.614;2023-04-29T22:19:41;7.60;99.90
52643;DHT22;38531;53.296;6.614;2023-04-29T22:22:07;6.20;99.90
52643;DHT22;38531;53.296;6.614;2023-04-29T22:24:35;6.20;99.90
52643;DHT22;38531;53.296;6.614;2023-04-29T22:27:01;6.90;99.90
52643;DHT22;38531;53.296;6.614;2023-04-29T22:29:30;7.10;99.90
52643;DHT22;38531;53.296;6.614;2023-04-29T22:31:56;6.30;99.90
52643;DHT22;38531;53.296;6.614;2023-04-29T22:34:24;6.00;99.90
52643;DHT22;38531;53.296;6.614;2023-04-29T22:36:50;7.10;99.90
52643;DHT22;38531;53.296;6.614;2023-04-29T22:39:23;6.20;99.90
52643;DHT22;38531;53.296;6.614;2023-04-29T22:41:49;5.90;99.90
52643;DHT22;38531;53.296;6.614;2023-04-29T22:44:17;6.20;99.90
52643;DHT22;38531;53.296;6.614;2023-04-29T22:46:53;5.90;99.90
52643;DHT22;38531;53.296;6.614;2023-04-29T22:49:27;5.10;99.90
52643;DHT22;38531;53.296;6.614;2023-04-29T22:51:55;5.90;99.90
52643;DHT22;38531;53.296;6.614;2023-04-29T22:54:21;6.40;99.90
52643;DHT22;38531;53.296;6.614;2023-04-29T22:56:47;5.80;99.90
52643;DHT22;38531;53.296;6.614;2023-04-29T22:59:13;5.70;99.90
52643;DHT22;38531;53.296;6.614;2023-04-29T23:01:39;5.90;99.90
52643;DHT22;38531;53.296;6.614;2023-04-29T23:04:07;6.50;99.90